createdAt,value
2022-10-24T00:02:24.659Z,99034.09
2022-10-24T00:04:51.102Z,99040.22
2022-10-24T00:07:17.563Z,99038.50
2022-10-24T00:09:43.985Z,99048.44
2022-10-24T00:12:10.593Z,99040.31
2022-10-24T00:14:37.827Z,99043.66
2022-10-24T00:17:04.713Z,99036.66
2022-10-24T00:19:31.074Z,99040.03
2022-10-24T00:21:57.487Z,99040.78
2022-10-24T00:24:25.118Z,99037.22
2022-10-24T00:26:52.294Z,99036.19
2022-10-24T00:29:18.919Z,99034.66
2022-10-24T00:31:45.351Z,99026.00
2022-10-24T00:34:12.049Z,99035.72
2022-10-24T00:36:38.665Z,99024.41
2022-10-24T00:39:05.119Z,99031.63
2022-10-24T00:41:38.242Z,99027.25
2022-10-24T00:44:33.093Z,99038.22
2022-10-24T00:47:08.080Z,99036.41
2022-10-24T00:50:02.034Z,99035.09
2022-10-24T00:52:34.534Z,99042.69
2022-10-24T00:55:02.910Z,99042.31
2022-10-24T00:57:50.152Z,99046.34
2022-10-24T01:00:21.341Z,99037.97
2022-10-24T01:02:48.180Z,99027.53
2022-10-24T01:05:15.449Z,99031.41
2022-10-24T01:08:05.666Z,99029.44
2022-10-24T01:10:48.892Z,99018.66
2022-10-24T01:13:41.627Z,99019.94
2022-10-24T01:16:18.433Z,99002.16
2022-10-24T01:21:30.623Z,99006.03
2022-10-24T01:24:31.103Z,99002.44
2022-10-24T01:27:19.280Z,99003.03
2022-10-24T01:29:53.054Z,99008.28
2022-10-24T01:32:36.767Z,98997.38
2022-10-24T01:35:16.762Z,98990.00
2022-10-24T01:37:53.148Z,98986.78
2022-10-24T01:40:29.932Z,98982.13
2022-10-24T01:43:00.708Z,98982.13
2022-10-24T01:45:33.130Z,98992.66
2022-10-24T01:48:03.443Z,99008.16
2022-10-24T01:50:32.543Z,98992.59
2022-10-24T01:52:59.676Z,98999.69
2022-10-24T01:55:26.102Z,99001.97
2022-10-24T01:57:52.463Z,98992.47
2022-10-24T02:00:22.128Z,98985.59
2022-10-24T02:02:59.968Z,98990.41
2022-10-24T02:05:34.663Z,99004.53
2022-10-24T02:08:06.245Z,99007.88
2022-10-24T02:10:38.331Z,99003.13
2022-10-24T02:13:42.216Z,99005.66
2022-10-24T02:16:09.537Z,98994.59
2022-10-24T02:18:35.981Z,98998.63
2022-10-24T02:21:19.368Z,99004.84
2022-10-24T02:24:02.736Z,99000.59
2022-10-24T02:26:46.842Z,99001.28
2022-10-24T02:29:24.682Z,99014.31
2022-10-24T02:31:55.113Z,99001.22
2022-10-24T02:34:24.195Z,99002.56
2022-10-24T02:36:53.560Z,98991.38
2022-10-24T02:39:21.009Z,98995.97
2022-10-24T02:41:50.069Z,98981.47
2022-10-24T02:44:19.123Z,98976.72
2022-10-24T02:46:46.929Z,98986.19
2022-10-24T02:49:13.628Z,98983.75
2022-10-24T02:51:43.626Z,98997.75
2022-10-24T02:54:11.060Z,98991.59
2022-10-24T02:56:43.188Z,98980.59
2022-10-24T03:01:41.011Z,98987.31
2022-10-24T03:04:07.448Z,98991.06
2022-10-24T03:06:33.827Z,98991.59
2022-10-24T03:09:00.264Z,98983.09
2022-10-24T03:11:26.900Z,98985.38
2022-10-24T03:13:53.314Z,98990.13
2022-10-24T03:16:19.681Z,98990.13
2022-10-24T03:18:46.250Z,98991.66
2022-10-24T03:21:12.958Z,98993.16
2022-10-24T03:23:39.383Z,98983.94
2022-10-24T03:26:06.054Z,98986.59
2022-10-24T03:28:34.704Z,98989.94
2022-10-24T03:31:01.078Z,98995.69
2022-10-24T03:33:27.470Z,98977.66
2022-10-24T03:35:54.721Z,98994.09
2022-10-24T03:38:22.735Z,98994.91
2022-10-24T03:40:49.867Z,98995.47
2022-10-24T03:43:16.866Z,98991.28
2022-10-24T03:45:43.552Z,98992.88
2022-10-24T03:48:09.989Z,98986.72
2022-10-24T03:50:36.428Z,98979.38
2022-10-24T03:53:03.724Z,98987.28
2022-10-24T03:55:30.146Z,98988.16
2022-10-24T03:57:56.739Z,98983.72
2022-10-24T04:00:23.492Z,98981.75
2022-10-24T04:02:52.628Z,98983.13
2022-10-24T04:05:19.036Z,98978.13
2022-10-24T04:07:45.603Z,98979.94
2022-10-24T04:10:12.263Z,98978.72
2022-10-24T04:12:38.722Z,98983.72
2022-10-24T04:15:05.773Z,98986.78
2022-10-24T04:17:32.767Z,98980.00
2022-10-24T04:19:59.156Z,98983.47
2022-10-24T04:22:25.582Z,98984.34
2022-10-24T04:24:51.958Z,98988.50
2022-10-24T04:27:18.454Z,98981.06
2022-10-24T04:29:44.842Z,98984.69
2022-10-24T04:32:11.203Z,98982.75
2022-10-24T04:34:37.581Z,98984.00
2022-10-24T04:37:04.405Z,98980.09
2022-10-24T04:39:30.795Z,98980.53
2022-10-24T04:41:57.301Z,98983.84
2022-10-24T04:44:23.835Z,98976.22
2022-10-24T04:46:51.546Z,98970.63
2022-10-24T04:49:18.354Z,98981.06
2022-10-24T04:51:44.815Z,98986.19
2022-10-24T04:54:11.262Z,98979.50
2022-10-24T04:56:37.714Z,98981.34
2022-10-24T04:59:04.324Z,98987.22
2022-10-24T05:01:30.756Z,98992.47
2022-10-24T05:03:57.303Z,98993.28
2022-10-24T05:06:23.721Z,98995.00
2022-10-24T05:08:50.094Z,98997.91
2022-10-24T05:11:16.612Z,99008.56
2022-10-24T05:13:43.053Z,98998.50
2022-10-24T05:16:09.566Z,99003.22
2022-10-24T05:18:35.979Z,99006.09
2022-10-24T05:21:02.441Z,98997.97
2022-10-24T05:23:28.901Z,99003.50
2022-10-24T05:25:55.394Z,99005.84
2022-10-24T05:28:21.860Z,99001.06
2022-10-24T05:30:48.266Z,99009.88
2022-10-24T05:33:14.708Z,99007.06
2022-10-24T05:35:41.687Z,99006.38
2022-10-24T05:38:08.298Z,99003.88
2022-10-24T05:40:34.723Z,99001.63
2022-10-24T05:43:01.117Z,98998.28
2022-10-24T05:45:27.478Z,99007.00
2022-10-24T05:47:53.834Z,98992.59
2022-10-24T05:50:20.249Z,98989.94
2022-10-24T05:52:47.313Z,98984.09
2022-10-24T05:55:16.995Z,98992.41
2022-10-24T05:57:45.631Z,98992.41
2022-10-24T06:00:14.962Z,98978.97
2022-10-24T06:02:42.127Z,98999.72
2022-10-24T06:05:09.909Z,98996.09
2022-10-24T06:07:37.124Z,98991.38
2022-10-24T06:10:04.919Z,99000.03
2022-10-24T06:12:31.280Z,99007.13
2022-10-24T06:14:58.840Z,99000.78
2022-10-24T06:17:25.530Z,99014.88
2022-10-24T06:19:51.970Z,99000.94
2022-10-24T06:22:19.646Z,99011.22
2022-10-24T06:24:46.061Z,99011.56
2022-10-24T06:27:12.450Z,99013.81
2022-10-24T06:29:38.799Z,99028.47
2022-10-24T06:32:05.318Z,99018.53
2022-10-24T06:34:31.872Z,99018.19
2022-10-24T06:36:58.765Z,99008.91
2022-10-24T06:39:25.214Z,99021.78
2022-10-24T06:41:51.609Z,99010.63
2022-10-24T06:44:18.010Z,99010.34
2022-10-24T06:46:44.666Z,99010.34
2022-10-24T06:49:13.114Z,99004.19
2022-10-24T06:51:40.889Z,99001.22
2022-10-24T06:54:07.599Z,99001.41
2022-10-24T06:56:34.068Z,98992.41
2022-10-24T06:59:00.454Z,98993.50
2022-10-24T07:01:27.756Z,99007.91
2022-10-24T07:03:54.699Z,98998.81
2022-10-24T07:06:29.633Z,99005.63
2022-10-24T07:08:59.214Z,99007.34
2022-10-24T07:11:26.778Z,99004.72
2022-10-24T07:13:55.352Z,99011.38
2022-10-24T07:16:25.361Z,99011.38
2022-10-24T07:18:51.764Z,99020.19
2022-10-24T07:21:21.187Z,99021.41
2022-10-24T07:23:47.709Z,99023.72
2022-10-24T07:26:16.516Z,99014.41
2022-10-24T07:28:46.396Z,99021.22
2022-10-24T07:31:16.316Z,99025.25
2022-10-24T07:33:42.898Z,99022.44
2022-10-24T07:36:09.792Z,99031.59
2022-10-24T07:38:37.204Z,99036.22
2022-10-24T07:41:05.250Z,99050.66
2022-10-24T07:43:31.674Z,99036.91
2022-10-24T07:45:58.089Z,99041.63
2022-10-24T07:48:24.635Z,99044.28
2022-10-24T07:50:51.066Z,99039.66
2022-10-24T07:53:17.438Z,99051.78
2022-10-24T07:55:44.734Z,99052.47
2022-10-24T07:58:12.097Z,99055.63
2022-10-24T08:00:44.055Z,99067.25
2022-10-24T08:03:11.516Z,99059.78
2022-10-24T08:05:39.706Z,99058.81
2022-10-24T08:10:53.255Z,99062.38
2022-10-24T08:13:20.179Z,99056.75
2022-10-24T08:15:46.799Z,99063.94
2022-10-24T08:18:13.233Z,99063.31
2022-10-24T08:20:40.049Z,99066.19
2022-10-24T08:23:06.794Z,99058.63
2022-10-24T08:25:33.399Z,99052.81
2022-10-24T08:28:00.928Z,99062.81
2022-10-24T08:30:29.433Z,99060.34
2022-10-24T08:32:55.925Z,99050.09
2022-10-24T08:35:22.394Z,99054.78
2022-10-24T08:37:48.973Z,99053.63
2022-10-24T08:40:19.127Z,99040.72
2022-10-24T08:42:48.037Z,99042.03
2022-10-24T08:45:35.610Z,99037.41
2022-10-24T08:48:08.339Z,99035.13
2022-10-24T08:50:36.270Z,99030.16
2022-10-24T08:53:05.542Z,99040.81
2022-10-24T08:55:53.391Z,99032.84
2022-10-24T08:58:35.312Z,99032.72
2022-10-24T09:01:07.415Z,99021.94
2022-10-24T09:03:56.107Z,99025.59
2022-10-24T09:06:26.101Z,99042.03
2022-10-24T09:08:55.689Z,99049.22
2022-10-24T09:11:37.278Z,99040.91
2022-10-24T09:14:18.638Z,99029.59
2022-10-24T09:16:49.592Z,99017.94
2022-10-24T09:19:20.584Z,99038.44
2022-10-24T09:21:47.998Z,99032.47
2022-10-24T09:24:32.394Z,99024.66
2022-10-24T09:27:00.442Z,99028.97
2022-10-24T09:29:32.353Z,99030.97
2022-10-24T09:31:59.478Z,99034.78
2022-10-24T09:34:26.070Z,99031.28
2022-10-24T09:36:52.566Z,99019.75
2022-10-24T09:39:28.117Z,99022.38
2022-10-24T09:41:55.745Z,99032.81
2022-10-24T09:44:33.103Z,99036.66
2022-10-24T09:47:01.165Z,99037.94
2022-10-24T09:49:46.500Z,99038.53
2022-10-24T09:52:26.526Z,99050.34
2022-10-24T09:55:21.464Z,99054.97
2022-10-24T09:57:53.670Z,99060.97
2022-10-24T10:00:29.207Z,99066.44
2022-10-24T10:03:04.863Z,99068.09
2022-10-24T10:05:54.507Z,99067.06
2022-10-24T10:08:30.283Z,99067.97
2022-10-24T10:10:58.701Z,99080.91
2022-10-24T10:13:27.701Z,99073.66
2022-10-24T10:15:59.158Z,99078.34
2022-10-24T10:18:43.084Z,99068.09
2022-10-24T10:21:16.201Z,99077.47
2022-10-24T10:23:44.582Z,99073.63
2022-10-24T10:26:24.672Z,99082.75
2022-10-24T10:29:01.482Z,99093.97
2022-10-24T10:31:39.107Z,99095.75
2022-10-24T10:34:32.240Z,99091.34
2022-10-24T10:37:06.293Z,99102.03
2022-10-24T10:39:41.877Z,99106.03
2022-10-24T10:42:19.011Z,99099.44
2022-10-24T10:44:54.999Z,99106.84
2022-10-24T10:47:39.880Z,99099.59
2022-10-24T10:50:26.539Z,99101.41
2022-10-24T10:52:58.880Z,99096.13
2022-10-24T10:55:42.321Z,99098.38
2022-10-24T10:58:17.757Z,99106.94
2022-10-24T11:00:55.185Z,99105.72
2022-10-24T11:03:24.603Z,99106.59
2022-10-24T11:06:15.702Z,99103.03
2022-10-24T11:09:09.701Z,99107.22
2022-10-24T11:11:41.551Z,99109.09
2022-10-24T11:14:38.754Z,99107.84
2022-10-24T11:17:16.654Z,99104.78
2022-10-24T11:20:08.489Z,99108.53
2022-10-24T11:22:48.539Z,99120.50
2022-10-24T11:25:34.880Z,99116.13
2022-10-24T11:28:12.334Z,99116.84
2022-10-24T11:30:49.687Z,99122.75
2022-10-24T11:33:24.890Z,99120.66
2022-10-24T11:36:08.201Z,99125.38
2022-10-24T11:38:40.750Z,99121.69
2022-10-24T11:41:23.910Z,99126.53
2022-10-24T11:43:54.902Z,99122.38
2022-10-24T11:46:30.703Z,99117.44
2022-10-24T11:49:08.388Z,99113.53
2022-10-24T11:51:40.428Z,99111.63
2022-10-24T11:54:21.864Z,99115.44
2022-10-24T11:57:11.366Z,99113.44
2022-10-24T11:59:40.984Z,99110.66
2022-10-24T12:02:50.160Z,99115.03
2022-10-24T12:05:34.770Z,99111.44
2022-10-24T12:08:21.949Z,99123.44
2022-10-24T12:11:06.429Z,99123.47
2022-10-24T12:16:59.500Z,99129.63
2022-10-24T12:19:27.941Z,99116.63
2022-10-24T12:21:58.519Z,99130.44
2022-10-24T12:24:30.021Z,99129.22
2022-10-24T12:27:02.754Z,99118.13
2022-10-24T12:29:33.545Z,99113.53
2022-10-24T12:32:24.159Z,99110.44
2022-10-24T12:35:25.297Z,99110.22
2022-10-24T12:37:46.932Z,99107.47
2022-10-24T12:40:52.008Z,99119.31
2022-10-24T12:43:30.575Z,99112.19
2022-10-24T12:46:01.539Z,99118.91
2022-10-24T12:48:34.041Z,99119.06
2022-10-24T12:51:26.345Z,99119.59
2022-10-24T12:54:18.176Z,99111.31
2022-10-24T12:56:51.150Z,99121.06
2022-10-24T12:59:22.138Z,99130.13
2022-10-24T13:01:51.382Z,99109.56
2022-10-24T13:04:51.423Z,99116.28
2022-10-24T13:07:38.223Z,99127.31
2022-10-24T13:10:15.233Z,99126.00
2022-10-24T13:12:44.666Z,99117.34
2022-10-24T13:15:30.218Z,99114.31
2022-10-24T13:18:11.966Z,99121.66
2022-10-24T13:20:44.438Z,99125.16
2022-10-24T13:23:16.349Z,99116.84
2022-10-24T13:25:44.067Z,99115.19
2022-10-24T13:28:19.700Z,99104.53
2022-10-24T13:30:49.616Z,99103.84
2022-10-24T13:33:32.604Z,99108.19
2022-10-24T13:36:26.985Z,99098.72
2022-10-24T13:38:57.703Z,99104.88
2022-10-24T13:41:44.205Z,99089.84
2022-10-24T13:44:28.672Z,99104.88
2022-10-24T13:47:19.931Z,99103.38
2022-10-24T13:49:53.460Z,99103.53
2022-10-24T13:52:49.153Z,99107.88
2022-10-24T13:55:23.807Z,99109.72
2022-10-24T13:58:00.371Z,99106.59
2022-10-24T14:00:39.614Z,99103.72
2022-10-24T14:03:15.532Z,99100.25
2022-10-24T14:05:51.654Z,99114.28
2022-10-24T14:08:33.761Z,99113.59
2022-10-24T14:11:04.702Z,99109.66
2022-10-24T14:13:33.934Z,99113.66
2022-10-24T14:16:03.501Z,99120.66
2022-10-24T14:18:30.943Z,99127.16
2022-10-24T14:21:00.692Z,99127.53
2022-10-24T14:23:30.971Z,99136.34
2022-10-24T14:26:02.033Z,99126.53
2022-10-24T14:28:30.384Z,99129.38
2022-10-24T14:31:02.597Z,99109.03
2022-10-24T14:33:41.590Z,99108.38
2022-10-24T14:36:08.774Z,99116.06
2022-10-24T14:38:36.190Z,99110.53
2022-10-24T14:41:09.029Z,99103.53
2022-10-24T14:43:41.087Z,99118.84
2022-10-24T14:46:13.558Z,99125.66
2022-10-24T14:48:42.980Z,99134.34
2022-10-24T14:51:18.942Z,99135.16
2022-10-24T14:53:46.079Z,99129.66
2022-10-24T14:56:36.502Z,99138.16
2022-10-24T14:59:06.495Z,99126.53
2022-10-24T15:01:33.142Z,99145.00
2022-10-24T15:04:02.469Z,99154.22
2022-10-24T15:06:37.809Z,99151.53
2022-10-24T15:09:24.687Z,99162.38
2022-10-24T15:12:01.916Z,99168.69
2022-10-24T15:14:47.548Z,99161.88
2022-10-24T15:17:16.978Z,99163.56
2022-10-24T15:19:45.968Z,99158.56
2022-10-24T15:22:26.864Z,99157.41
2022-10-24T15:24:55.601Z,99159.22
2022-10-24T15:27:27.466Z,99143.22
2022-10-24T15:29:54.365Z,99139.00
2022-10-24T15:32:20.831Z,99149.03
2022-10-24T15:34:47.318Z,99146.72
2022-10-24T15:37:23.445Z,99155.72
2022-10-24T15:39:52.643Z,99149.72
2022-10-24T15:42:21.602Z,99153.06
2022-10-24T15:44:49.165Z,99162.59
2022-10-24T15:47:15.677Z,99164.75
2022-10-24T15:49:42.122Z,99171.06
2022-10-24T15:52:15.479Z,99155.28
2022-10-24T15:54:42.086Z,99176.94
2022-10-24T15:57:12.649Z,99176.25
2022-10-24T15:59:39.564Z,99182.44
2022-10-24T16:02:16.086Z,99175.78
2022-10-24T16:04:42.654Z,99171.63
2022-10-24T16:07:10.471Z,99180.13
2022-10-24T16:09:37.258Z,99181.44
2022-10-24T16:12:03.857Z,99182.13
2022-10-24T16:14:30.421Z,99182.28
2022-10-24T16:16:57.125Z,99179.16
2022-10-24T16:19:26.330Z,99179.16
2022-10-24T16:21:54.311Z,99180.81
2022-10-24T16:24:20.720Z,99164.13
2022-10-24T16:26:47.104Z,99151.97
2022-10-24T16:29:13.490Z,99160.28
2022-10-24T16:31:39.971Z,99161.00
2022-10-24T16:34:07.265Z,99153.81
2022-10-24T16:36:33.887Z,99162.81
2022-10-24T16:39:00.510Z,99167.63
2022-10-24T16:41:27.334Z,99163.47
2022-10-24T16:43:56.136Z,99167.13
2022-10-24T16:46:24.030Z,99167.97
2022-10-24T16:48:50.599Z,99173.47
2022-10-24T16:51:20.002Z,99183.81
2022-10-24T16:53:46.394Z,99183.16
2022-10-24T16:56:15.465Z,99187.63
2022-10-24T16:58:42.159Z,99185.47
2022-10-24T17:01:12.420Z,99199.78
2022-10-24T17:03:42.129Z,99209.97
2022-10-24T17:06:09.046Z,99212.81
2022-10-24T17:08:35.526Z,99218.78
2022-10-24T17:11:02.025Z,99221.94
2022-10-24T17:13:29.047Z,99235.44
2022-10-24T17:15:56.465Z,99228.94
2022-10-24T17:18:25.251Z,99228.41
2022-10-24T17:20:54.393Z,99225.25
2022-10-24T17:23:22.820Z,99227.59
2022-10-24T17:25:49.448Z,99233.75
2022-10-24T17:28:16.408Z,99232.44
2022-10-24T17:30:43.493Z,99228.06
2022-10-24T17:33:11.412Z,99231.09
2022-10-24T17:35:42.085Z,99233.75
2022-10-24T17:38:22.050Z,99228.91
2022-10-24T17:40:49.495Z,99244.53
2022-10-24T17:43:23.246Z,99246.53
2022-10-24T17:45:49.966Z,99233.72
2022-10-24T17:48:17.291Z,99247.69
2022-10-24T17:50:44.364Z,99246.03
2022-10-24T17:53:15.263Z,99239.03
2022-10-24T17:55:47.185Z,99251.03
2022-10-24T17:58:15.553Z,99246.03
2022-10-24T18:00:42.776Z,99249.88
2022-10-24T18:03:09.409Z,99256.84
2022-10-24T18:05:38.069Z,99257.69
2022-10-24T18:08:23.884Z,99259.66
2022-10-24T18:10:51.132Z,99244.84
2022-10-24T18:13:18.174Z,99252.53
2022-10-24T18:16:03.350Z,99255.34
2022-10-24T18:18:30.297Z,99261.81
2022-10-24T18:21:10.603Z,99257.16
2022-10-24T18:23:38.363Z,99267.63
2022-10-24T18:26:31.466Z,99230.97
2022-10-24T18:28:58.625Z,99253.00
2022-10-24T18:31:27.839Z,99249.81
2022-10-24T18:34:04.735Z,99256.31
2022-10-24T18:36:41.682Z,99259.63
2022-10-24T18:39:10.165Z,99268.75
2022-10-24T18:41:46.622Z,99278.22
2022-10-24T18:44:23.201Z,99276.06
2022-10-24T18:46:57.229Z,99261.25
2022-10-24T18:49:24.108Z,99272.91
2022-10-24T18:52:03.852Z,99274.53
2022-10-24T18:54:30.782Z,99267.94
2022-10-24T18:56:59.021Z,99266.41
2022-10-24T18:59:25.835Z,99262.28
2022-10-24T19:02:19.413Z,99265.75
2022-10-24T19:05:01.431Z,99264.75
2022-10-24T19:07:55.224Z,99273.00
2022-10-24T19:10:30.545Z,99265.34
2022-10-24T19:13:04.345Z,99271.63
2022-10-24T19:15:31.448Z,99283.25
2022-10-24T19:18:00.804Z,99272.78
2022-10-24T19:20:35.720Z,99268.94
2022-10-24T19:23:05.533Z,99266.19
2022-10-24T19:25:40.509Z,99270.78
2022-10-24T19:28:14.322Z,99274.97
2022-10-24T19:30:50.243Z,99274.50
2022-10-24T19:33:19.018Z,99264.03
2022-10-24T19:36:01.535Z,99261.69
2022-10-24T19:38:32.745Z,99284.75
2022-10-24T19:41:03.102Z,99277.59
2022-10-24T19:43:34.860Z,99284.28
2022-10-24T19:46:18.742Z,99282.44
2022-10-24T19:48:48.943Z,99288.31
2022-10-24T19:51:18.990Z,99287.00
2022-10-24T19:53:56.944Z,99290.22
2022-10-24T19:56:26.175Z,99290.53
2022-10-24T19:58:53.927Z,99294.88
2022-10-24T20:01:23.546Z,99289.03
2022-10-24T20:03:51.302Z,99291.72
2022-10-24T20:06:19.171Z,99303.53
2022-10-24T20:08:46.988Z,99293.56
2022-10-24T20:11:15.522Z,99302.06
2022-10-24T20:13:42.902Z,99294.69
2022-10-24T20:16:10.505Z,99298.22
2022-10-24T20:18:38.371Z,99305.53
2022-10-24T20:21:07.759Z,99295.34
2022-10-24T20:23:35.616Z,99304.13
2022-10-24T20:26:07.459Z,99313.47
2022-10-24T20:28:43.207Z,99309.81
2022-10-24T20:31:21.559Z,99305.97
2022-10-24T20:33:48.701Z,99308.47
2022-10-24T20:36:15.073Z,99310.69
2022-10-24T20:38:41.638Z,99314.84
2022-10-24T20:41:08.444Z,99324.38
2022-10-24T20:43:34.832Z,99307.53
2022-10-24T20:46:05.057Z,99328.50
2022-10-24T20:48:35.071Z,99322.50
2022-10-24T20:51:10.768Z,99327.34
2022-10-24T20:53:37.625Z,99325.00
2022-10-24T20:56:06.409Z,99337.56
2022-10-24T20:58:35.467Z,99341.25
2022-10-24T21:01:26.269Z,99338.88
2022-10-24T21:03:53.731Z,99338.44
2022-10-24T21:06:23.030Z,99351.59
2022-10-24T21:08:51.032Z,99348.41
2022-10-24T21:11:24.563Z,99359.19
2022-10-24T21:13:59.397Z,99372.56
2022-10-24T21:16:26.539Z,99371.53
2022-10-24T21:18:53.747Z,99367.44
2022-10-24T21:21:21.115Z,99368.25
2022-10-24T21:23:52.849Z,99377.75
2022-10-24T21:26:20.120Z,99377.75
2022-10-24T21:28:46.589Z,99377.28
2022-10-24T21:31:15.556Z,99373.00
2022-10-24T21:33:42.390Z,99387.56
2022-10-24T21:36:11.841Z,99387.78
2022-10-24T21:38:38.545Z,99398.69
2022-10-24T21:41:07.374Z,99396.44
2022-10-24T21:43:36.093Z,99396.88
2022-10-24T21:46:18.577Z,99388.84
2022-10-24T21:48:46.301Z,99399.38
2022-10-24T21:51:21.576Z,99392.25
2022-10-24T21:53:53.506Z,99394.31
2022-10-24T21:56:22.373Z,99406.47
2022-10-24T21:58:50.693Z,99399.75
2022-10-24T22:01:20.049Z,99406.47
2022-10-24T22:03:46.720Z,99409.50
2022-10-24T22:06:16.603Z,99419.06
2022-10-24T22:08:43.912Z,99408.13
2022-10-24T22:11:12.830Z,99415.41
2022-10-24T22:13:39.778Z,99419.34
2022-10-24T22:16:07.980Z,99415.41
2022-10-24T22:18:35.490Z,99412.75
2022-10-24T22:21:03.004Z,99421.94
2022-10-24T22:23:29.848Z,99416.34
2022-10-24T22:25:58.032Z,99417.16
2022-10-24T22:28:25.031Z,99419.41
2022-10-24T22:30:51.801Z,99408.38
2022-10-24T22:33:35.118Z,99419.53
2022-10-24T22:36:17.866Z,99421.91
2022-10-24T22:38:44.429Z,99430.44
2022-10-24T22:41:11.137Z,99442.09
2022-10-24T22:43:38.232Z,99441.94
2022-10-24T22:46:32.598Z,99438.28
2022-10-24T22:49:13.398Z,99439.22
2022-10-24T22:51:40.054Z,99442.22
2022-10-24T22:54:16.613Z,99450.91
2022-10-24T22:56:43.327Z,99450.38
2022-10-24T22:59:10.004Z,99450.06
2022-10-24T23:01:54.793Z,99444.75
2022-10-24T23:04:29.736Z,99455.97
2022-10-24T23:07:02.626Z,99471.09
2022-10-24T23:09:29.006Z,99465.22
2022-10-24T23:11:55.709Z,99473.19
2022-10-24T23:14:22.335Z,99469.97
2022-10-24T23:16:58.803Z,99476.25
2022-10-24T23:19:27.927Z,99481.13
2022-10-24T23:22:11.381Z,99479.16
2022-10-24T23:24:38.013Z,99481.06
2022-10-24T23:27:13.242Z,99466.78
2022-10-24T23:29:45.949Z,99457.44
2022-10-24T23:32:22.873Z,99467.50
2022-10-24T23:34:50.294Z,99468.47
2022-10-24T23:37:38.556Z,99476.53
2022-10-24T23:40:24.824Z,99474.84
2022-10-24T23:42:52.306Z,99478.50
2022-10-24T23:45:21.951Z,99467.84
2022-10-24T23:48:03.330Z,99466.88
2022-10-24T23:51:08.470Z,99469.38
2022-10-24T23:53:53.594Z,99480.34
2022-10-24T23:56:25.498Z,99478.19
2022-10-24T23:58:52.179Z,99485.50
